createdAt,value
2023-01-24T00:00:24.120Z,5.90
2023-01-24T00:01:25.912Z,5.73
2023-01-24T00:02:28.710Z,5.38
2023-01-24T00:03:30.644Z,5.68
2023-01-24T00:04:32.462Z,6.03
2023-01-24T00:05:34.256Z,5.91
2023-01-24T00:06:36.161Z,5.17
2023-01-24T00:07:38.992Z,5.61
2023-01-24T00:08:40.784Z,5.15
2023-01-24T00:09:42.612Z,5.45
2023-01-24T00:10:44.408Z,6.19
2023-01-24T00:11:46.214Z,5.79
2023-01-24T00:12:48.008Z,5.63
2023-01-24T00:13:49.812Z,5.59
2023-01-24T00:14:51.626Z,5.74
2023-01-24T00:15:53.564Z,5.31
2023-01-24T00:16:55.352Z,5.95
2023-01-24T00:17:57.126Z,5.29
2023-01-24T00:18:58.918Z,8.00
2023-01-24T00:20:00.757Z,8.37
2023-01-24T00:21:02.580Z,9.74
2023-01-24T00:22:04.365Z,7.19
2023-01-24T00:23:06.150Z,8.60
2023-01-24T00:24:08.003Z,9.42
2023-01-24T00:25:09.801Z,6.40
2023-01-24T00:26:11.799Z,6.73
2023-01-24T00:27:13.596Z,6.71
2023-01-24T00:28:15.388Z,6.14
2023-01-24T00:29:17.205Z,7.09
2023-01-24T00:30:19.091Z,6.27
2023-01-24T00:31:21.047Z,6.69
2023-01-24T00:32:22.861Z,6.42
2023-01-24T00:33:24.643Z,6.68
2023-01-24T00:34:26.491Z,6.26
2023-01-24T00:35:28.345Z,7.28
2023-01-24T00:36:30.227Z,6.73
2023-01-24T00:37:32.014Z,6.38
2023-01-24T00:38:33.827Z,7.03
2023-01-24T00:39:35.641Z,6.41
2023-01-24T00:40:37.445Z,8.76
2023-01-24T00:41:39.330Z,7.79
2023-01-24T00:42:41.142Z,8.06
2023-01-24T00:43:42.940Z,7.77
2023-01-24T00:44:44.735Z,8.03
2023-01-24T00:45:46.556Z,9.65
2023-01-24T00:46:48.429Z,12.46
2023-01-24T00:47:50.242Z,13.98
2023-01-24T00:48:52.051Z,15.70
2023-01-24T00:49:54.143Z,16.12
2023-01-24T00:50:56.101Z,8.10
2023-01-24T00:51:58.007Z,7.86
2023-01-24T00:52:59.787Z,7.20
2023-01-24T00:54:01.578Z,8.50
2023-01-24T00:55:03.373Z,7.07
2023-01-24T00:56:05.414Z,6.62
2023-01-24T00:57:07.223Z,6.89
2023-01-24T00:58:09.017Z,6.85
2023-01-24T00:59:10.812Z,6.89
2023-01-24T01:00:12.924Z,5.89
2023-01-24T01:01:14.748Z,5.92
2023-01-24T01:02:16.598Z,5.57
2023-01-24T01:03:18.396Z,6.06
2023-01-24T01:04:20.167Z,5.94
2023-01-24T01:05:22.187Z,6.09
2023-01-24T01:06:24.289Z,6.07
2023-01-24T01:07:26.073Z,6.54
2023-01-24T01:08:27.881Z,5.53
2023-01-24T01:09:29.667Z,6.32
2023-01-24T01:10:31.591Z,5.80
2023-01-24T01:11:33.502Z,6.31
2023-01-24T01:12:35.286Z,5.66
2023-01-24T01:13:37.092Z,6.27
2023-01-24T01:14:38.886Z,6.61
2023-01-24T01:15:40.701Z,5.49
2023-01-24T01:16:42.617Z,6.08
2023-01-24T01:17:45.087Z,5.81
2023-01-24T01:18:46.869Z,5.64
2023-01-24T01:19:48.655Z,5.56
2023-01-24T01:20:50.462Z,5.75
2023-01-24T01:21:52.300Z,6.43
2023-01-24T01:22:54.084Z,5.51
2023-01-24T01:23:55.886Z,5.87
2023-01-24T01:24:57.692Z,5.71
2023-01-24T01:25:59.474Z,5.23
2023-01-24T01:27:01.423Z,5.33
2023-01-24T01:28:03.214Z,5.72
2023-01-24T01:29:05.007Z,5.88
2023-01-24T01:30:07.424Z,5.03
2023-01-24T01:31:09.265Z,4.81
2023-01-24T01:32:11.181Z,5.51
2023-01-24T01:33:13.303Z,5.10
2023-01-24T01:34:15.100Z,6.07
2023-01-24T01:35:16.893Z,4.88
2023-01-24T01:36:18.722Z,5.18
2023-01-24T01:37:20.532Z,5.14
2023-01-24T01:38:22.329Z,5.93
2023-01-24T01:39:24.129Z,5.41
2023-01-24T01:40:25.939Z,5.07
2023-01-24T01:41:27.738Z,5.15
2023-01-24T01:42:29.579Z,5.39
2023-01-24T01:43:31.390Z,5.59
2023-01-24T01:44:33.213Z,5.31
2023-01-24T01:45:35.062Z,5.43
2023-01-24T01:46:36.825Z,5.09
2023-01-24T01:47:38.651Z,5.67
2023-01-24T01:48:40.569Z,4.89
2023-01-24T01:49:42.348Z,5.27
2023-01-24T01:50:44.161Z,5.65
2023-01-24T01:51:45.957Z,5.25
2023-01-24T01:52:47.782Z,4.90
2023-01-24T01:53:49.794Z,5.15
2023-01-24T01:54:51.585Z,6.16
2023-01-24T01:55:53.388Z,5.24
2023-01-24T01:56:55.291Z,4.83
2023-01-24T01:57:57.115Z,4.49
2023-01-24T01:58:58.927Z,4.77
2023-01-24T02:00:00.728Z,5.05
2023-01-24T02:01:02.547Z,5.64
2023-01-24T02:02:04.417Z,5.68
2023-01-24T02:03:07.648Z,6.00
2023-01-24T02:04:09.552Z,5.01
2023-01-24T02:05:11.377Z,4.94
2023-01-24T02:06:13.263Z,4.89
2023-01-24T02:07:15.061Z,4.91
2023-01-24T02:08:16.951Z,5.19
2023-01-24T02:09:18.747Z,5.39
2023-01-24T02:10:20.547Z,5.50
2023-01-24T02:11:22.356Z,5.17
2023-01-24T02:12:24.142Z,4.91
2023-01-24T02:13:25.965Z,5.41
2023-01-24T02:14:27.754Z,5.22
2023-01-24T02:15:29.562Z,5.78
2023-01-24T02:16:31.492Z,5.59
2023-01-24T02:17:33.237Z,4.79
2023-01-24T02:18:35.068Z,5.00
2023-01-24T02:19:37.053Z,5.03
2023-01-24T02:20:38.962Z,5.35
2023-01-24T02:21:40.739Z,5.12
2023-01-24T02:22:42.536Z,5.49
2023-01-24T02:23:44.430Z,5.00
2023-01-24T02:24:46.329Z,5.30
2023-01-24T02:25:48.106Z,4.74
2023-01-24T02:26:49.887Z,4.69
2023-01-24T02:27:51.694Z,4.77
2023-01-24T02:28:53.541Z,4.80
2023-01-24T02:29:55.316Z,5.06
2023-01-24T02:30:57.303Z,5.23
2023-01-24T02:31:59.135Z,4.91
2023-01-24T02:33:00.983Z,4.81
2023-01-24T02:34:02.793Z,5.09
2023-01-24T02:35:04.616Z,4.99
2023-01-24T02:36:06.808Z,7.35
2023-01-24T02:37:08.607Z,12.04
2023-01-24T02:38:10.393Z,15.33
2023-01-24T02:39:12.214Z,11.31
2023-01-24T02:40:14.410Z,6.85
2023-01-24T02:41:16.200Z,5.96
2023-01-24T02:42:17.993Z,7.43
2023-01-24T02:43:19.787Z,6.93
2023-01-24T02:44:21.611Z,5.88
2023-01-24T02:45:23.717Z,5.26
2023-01-24T02:46:26.102Z,5.09
2023-01-24T02:47:27.888Z,5.42
2023-01-24T02:48:29.682Z,5.21
2023-01-24T02:49:31.519Z,4.63
2023-01-24T02:50:33.326Z,5.16
2023-01-24T02:51:35.109Z,4.93
2023-01-24T02:52:36.910Z,4.21
2023-01-24T02:53:38.725Z,4.73
2023-01-24T02:54:40.540Z,4.72
2023-01-24T02:55:42.319Z,5.18
2023-01-24T02:56:44.103Z,5.13
2023-01-24T02:57:45.890Z,4.64
2023-01-24T02:58:47.693Z,5.28
2023-01-24T02:59:49.539Z,5.07
2023-01-24T03:00:51.351Z,5.11
2023-01-24T03:01:53.138Z,4.43
2023-01-24T03:02:54.898Z,4.90
2023-01-24T03:03:56.695Z,5.59
2023-01-24T03:04:58.523Z,4.43
2023-01-24T03:06:00.385Z,4.86
2023-01-24T03:07:02.180Z,5.10
2023-01-24T03:08:03.980Z,4.50
2023-01-24T03:09:05.771Z,4.71
2023-01-24T03:10:07.906Z,5.23
2023-01-24T03:11:09.703Z,5.84
2023-01-24T03:12:11.494Z,5.97
2023-01-24T03:13:13.287Z,6.65
2023-01-24T03:14:15.079Z,5.31
2023-01-24T03:15:16.889Z,7.01
2023-01-24T03:16:18.697Z,6.51
2023-01-24T03:17:20.482Z,7.03
2023-01-24T03:18:22.275Z,7.73
2023-01-24T03:19:24.048Z,7.67
2023-01-24T03:20:25.857Z,6.21
2023-01-24T03:21:27.768Z,5.75
2023-01-24T03:22:29.578Z,5.52
2023-01-24T03:23:31.380Z,6.21
2023-01-24T03:24:33.165Z,5.14
2023-01-24T03:25:35.033Z,4.75
2023-01-24T03:26:37.117Z,4.57
2023-01-24T03:27:39.152Z,4.43
2023-01-24T03:28:40.953Z,4.61
2023-01-24T03:29:42.733Z,5.99
2023-01-24T03:30:44.662Z,5.69
2023-01-24T03:31:46.528Z,4.32
2023-01-24T03:32:48.345Z,4.45
2023-01-24T03:33:50.142Z,4.76
2023-01-24T03:34:51.949Z,4.41
2023-01-24T03:35:53.754Z,4.27
2023-01-24T03:36:55.883Z,4.75
2023-01-24T03:37:57.686Z,4.64
2023-01-24T03:38:59.464Z,5.34
2023-01-24T03:40:01.246Z,5.53
2023-01-24T03:41:03.088Z,5.77
2023-01-24T03:42:04.895Z,4.82
2023-01-24T03:43:06.694Z,5.09
2023-01-24T03:44:08.466Z,6.19
2023-01-24T03:45:10.251Z,5.29
2023-01-24T03:46:12.143Z,5.17
2023-01-24T03:47:13.971Z,5.17
2023-01-24T03:48:15.777Z,4.95
2023-01-24T03:49:17.572Z,5.28
2023-01-24T03:50:19.435Z,5.08
2023-01-24T03:51:22.049Z,5.27
2023-01-24T03:52:23.932Z,5.43
2023-01-24T03:53:25.733Z,5.08
2023-01-24T03:54:27.525Z,6.37
2023-01-24T03:55:29.306Z,8.94
2023-01-24T03:56:31.244Z,6.64
2023-01-24T03:57:33.050Z,5.14
2023-01-24T03:58:34.823Z,5.24
2023-01-24T03:59:36.628Z,4.75
2023-01-24T04:00:38.519Z,5.08
2023-01-24T04:01:40.362Z,5.07
2023-01-24T04:02:42.144Z,5.39
2023-01-24T04:03:43.931Z,5.92
2023-01-24T04:04:45.712Z,5.42
2023-01-24T04:05:47.514Z,8.37
2023-01-24T04:06:49.449Z,7.34
2023-01-24T04:07:51.590Z,6.60
2023-01-24T04:08:53.392Z,5.61
2023-01-24T04:09:55.184Z,5.78
2023-01-24T04:10:56.946Z,4.66
2023-01-24T04:11:58.778Z,5.00
2023-01-24T04:13:00.552Z,4.56
2023-01-24T04:14:02.355Z,5.33
2023-01-24T04:15:04.161Z,4.34
2023-01-24T04:16:06.452Z,5.19
2023-01-24T04:17:08.306Z,4.97
2023-01-24T04:18:10.108Z,4.54
2023-01-24T04:19:11.888Z,4.97
2023-01-24T04:20:13.675Z,4.87
2023-01-24T04:21:15.475Z,4.45
2023-01-24T04:22:17.306Z,5.34
2023-01-24T04:23:19.157Z,4.76
2023-01-24T04:24:20.953Z,5.03
2023-01-24T04:25:23.018Z,4.85
2023-01-24T04:26:25.052Z,4.69
2023-01-24T04:27:26.912Z,5.11
2023-01-24T04:28:28.692Z,5.37
2023-01-24T04:29:30.486Z,4.97
2023-01-24T04:30:32.294Z,5.59
2023-01-24T04:31:34.215Z,5.99
2023-01-24T04:32:36.209Z,5.47
2023-01-24T04:33:38.012Z,5.72
2023-01-24T04:34:39.805Z,6.00
2023-01-24T04:35:41.608Z,6.10
2023-01-24T04:36:43.712Z,5.57
2023-01-24T04:37:45.530Z,4.95
2023-01-24T04:38:47.389Z,5.13
2023-01-24T04:39:49.187Z,4.96
2023-01-24T04:40:51.095Z,5.04
2023-01-24T04:41:52.881Z,4.67
2023-01-24T04:42:54.711Z,4.90
2023-01-24T04:43:56.498Z,4.95
2023-01-24T04:44:58.303Z,5.07
2023-01-24T04:46:00.098Z,5.11
2023-01-24T04:47:01.918Z,5.24
2023-01-24T04:48:03.716Z,4.92
2023-01-24T04:49:05.505Z,5.19
2023-01-24T04:50:07.609Z,5.22
2023-01-24T04:51:09.401Z,5.38
2023-01-24T04:52:11.185Z,5.52
2023-01-24T04:53:13.007Z,5.77
2023-01-24T04:54:14.988Z,5.40
2023-01-24T04:55:16.779Z,5.47
2023-01-24T04:56:18.573Z,5.73
2023-01-24T04:57:20.366Z,5.68
2023-01-24T04:58:22.205Z,5.09
2023-01-24T04:59:24.017Z,5.48
2023-01-24T05:00:26.112Z,6.57
2023-01-24T05:01:27.906Z,5.81
2023-01-24T05:02:29.709Z,5.51
2023-01-24T05:03:31.519Z,4.80
2023-01-24T05:04:33.311Z,10.27
2023-01-24T05:05:35.120Z,9.97
2023-01-24T05:06:36.914Z,10.21
2023-01-24T05:07:38.713Z,7.51
2023-01-24T05:08:40.529Z,6.91
2023-01-24T05:09:42.356Z,10.31
2023-01-24T05:10:44.254Z,7.29
2023-01-24T05:11:46.050Z,6.24
2023-01-24T05:12:47.848Z,6.11
2023-01-24T05:13:49.665Z,6.55
2023-01-24T05:14:51.455Z,5.30
2023-01-24T05:15:53.243Z,5.23
2023-01-24T05:16:55.220Z,5.50
2023-01-24T05:17:56.941Z,6.51
2023-01-24T05:18:58.765Z,5.91
2023-01-24T05:20:00.557Z,6.89
2023-01-24T05:21:02.402Z,6.15
2023-01-24T05:22:04.245Z,5.28
2023-01-24T05:23:06.044Z,5.16
2023-01-24T05:24:07.878Z,5.83
2023-01-24T05:25:09.695Z,5.67
2023-01-24T05:26:11.606Z,6.91
2023-01-24T05:27:13.390Z,7.04
2023-01-24T05:28:15.190Z,7.25
2023-01-24T05:29:17.030Z,6.46
2023-01-24T05:30:18.846Z,7.25
2023-01-24T05:31:20.683Z,6.67
2023-01-24T05:32:22.435Z,6.21
2023-01-24T05:33:24.234Z,6.92
2023-01-24T05:34:26.072Z,6.91
2023-01-24T05:35:27.972Z,6.96
2023-01-24T05:36:29.878Z,7.61
2023-01-24T05:37:31.691Z,6.69
2023-01-24T05:38:33.456Z,7.41
2023-01-24T05:39:35.300Z,7.48
2023-01-24T05:40:37.444Z,6.69
2023-01-24T05:41:39.237Z,8.23
2023-01-24T05:42:41.050Z,6.88
2023-01-24T05:43:42.843Z,6.29
2023-01-24T05:44:44.680Z,6.60
2023-01-24T05:45:46.515Z,6.91
2023-01-24T05:46:48.332Z,7.89
2023-01-24T05:47:50.152Z,6.65
2023-01-24T05:48:51.955Z,6.44
2023-01-24T05:49:53.801Z,6.38
2023-01-24T05:50:55.784Z,7.29
2023-01-24T05:51:57.614Z,7.80
2023-01-24T05:52:59.395Z,8.30
2023-01-24T05:54:01.194Z,6.99
2023-01-24T05:55:03.014Z,6.69
2023-01-24T05:56:05.245Z,6.61
2023-01-24T05:57:07.031Z,7.04
2023-01-24T05:58:08.819Z,6.47
2023-01-24T05:59:10.620Z,7.40
2023-01-24T06:00:13.689Z,6.91
2023-01-24T06:01:15.470Z,7.71
2023-01-24T06:02:17.381Z,7.03
2023-01-24T06:03:19.146Z,7.49
2023-01-24T06:04:20.910Z,7.85
2023-01-24T06:05:23.238Z,9.08
2023-01-24T06:06:25.284Z,9.12
2023-01-24T06:07:27.069Z,8.89
2023-01-24T06:08:28.882Z,7.17
2023-01-24T06:09:30.690Z,8.87
2023-01-24T06:10:32.613Z,7.18
2023-01-24T06:11:34.737Z,6.36
2023-01-24T06:12:36.488Z,6.58
2023-01-24T06:13:38.299Z,6.62
2023-01-24T06:14:40.194Z,7.09
2023-01-24T06:15:42.129Z,7.09
2023-01-24T06:16:44.014Z,7.38
2023-01-24T06:17:45.831Z,7.99
2023-01-24T06:18:47.667Z,8.40
2023-01-24T06:19:49.452Z,7.69
2023-01-24T06:20:51.499Z,8.86
2023-01-24T06:21:53.283Z,6.83
2023-01-24T06:22:55.124Z,6.24
2023-01-24T06:23:56.965Z,6.81
2023-01-24T06:24:58.801Z,6.85
2023-01-24T06:26:00.655Z,6.79
2023-01-24T06:27:02.521Z,6.71
2023-01-24T06:28:04.302Z,7.55
2023-01-24T06:29:06.097Z,8.30
2023-01-24T06:30:08.408Z,9.22
2023-01-24T06:31:10.316Z,8.06
2023-01-24T06:32:12.148Z,8.68
2023-01-24T06:33:14.013Z,7.89
2023-01-24T06:34:15.806Z,7.25
2023-01-24T06:35:17.617Z,6.95
2023-01-24T06:36:19.425Z,7.12
2023-01-24T06:37:21.232Z,6.65
2023-01-24T06:38:23.037Z,10.43
2023-01-24T06:39:24.832Z,7.55
2023-01-24T06:40:26.913Z,7.18
2023-01-24T06:41:28.755Z,6.95
2023-01-24T06:42:30.637Z,7.54
2023-01-24T06:43:32.411Z,6.65
2023-01-24T06:44:34.201Z,6.95
2023-01-24T06:45:36.027Z,6.53
2023-01-24T06:46:38.025Z,7.65
2023-01-24T06:47:39.879Z,8.37
2023-01-24T06:48:41.670Z,10.35
2023-01-24T06:49:43.496Z,11.70
2023-01-24T06:50:45.429Z,10.59
2023-01-24T06:51:47.251Z,8.65
2023-01-24T06:52:49.048Z,9.03
2023-01-24T06:53:50.845Z,6.65
2023-01-24T06:54:52.665Z,15.90
2023-01-24T06:55:54.459Z,14.29
2023-01-24T06:56:56.377Z,9.00
2023-01-24T06:57:58.214Z,11.25
2023-01-24T06:59:00.031Z,12.44
2023-01-24T07:00:01.885Z,14.04
2023-01-24T07:01:03.772Z,12.21
2023-01-24T07:02:05.986Z,9.30
2023-01-24T07:03:07.862Z,8.65
2023-01-24T07:04:09.672Z,9.71
2023-01-24T07:05:11.531Z,17.26
2023-01-24T07:06:13.920Z,19.29
2023-01-24T07:07:15.788Z,16.49
2023-01-24T07:08:21.579Z,11.19
2023-01-24T07:09:21.187Z,8.29
2023-01-24T07:10:23.074Z,8.53
2023-01-24T07:11:24.855Z,11.89
2023-01-24T07:12:26.699Z,12.95
2023-01-24T07:13:28.509Z,14.11
2023-01-24T07:14:30.309Z,11.76
2023-01-24T07:15:32.101Z,9.12
2023-01-24T07:16:36.517Z,7.76
2023-01-24T07:17:38.704Z,8.44
2023-01-24T07:18:40.591Z,8.99
2023-01-24T07:19:42.394Z,9.21
2023-01-24T07:20:44.198Z,9.12
2023-01-24T07:21:46.036Z,8.67
2023-01-24T07:22:47.894Z,8.79
2023-01-24T07:23:49.763Z,7.75
2023-01-24T07:24:51.627Z,7.54
2023-01-24T07:25:53.444Z,6.83
2023-01-24T07:26:55.246Z,7.29
2023-01-24T07:27:57.092Z,7.30
2023-01-24T07:28:59.007Z,7.34
2023-01-24T07:30:00.805Z,7.21
2023-01-24T07:31:02.671Z,7.13
2023-01-24T07:32:04.563Z,7.69
2023-01-24T07:33:06.425Z,7.47
2023-01-24T07:34:08.213Z,7.70
2023-01-24T07:35:10.012Z,9.37
2023-01-24T07:36:12.009Z,9.77
2023-01-24T07:37:13.803Z,11.06
2023-01-24T07:38:15.651Z,9.28
2023-01-24T07:39:17.447Z,7.86
2023-01-24T07:40:19.226Z,9.03
2023-01-24T07:41:21.013Z,10.12
2023-01-24T07:42:22.819Z,8.98
2023-01-24T07:43:24.648Z,9.03
2023-01-24T07:44:26.513Z,10.51
2023-01-24T07:45:28.389Z,11.81
2023-01-24T07:46:30.209Z,11.17
2023-01-24T07:47:32.013Z,10.89
2023-01-24T07:48:33.845Z,11.58
2023-01-24T07:49:35.619Z,10.66
2023-01-24T07:50:37.529Z,10.60
2023-01-24T07:51:39.328Z,9.40
2023-01-24T07:52:41.119Z,9.52
2023-01-24T07:53:42.969Z,9.12
2023-01-24T07:54:44.761Z,9.44
2023-01-24T07:55:56.855Z,7.73
2023-01-24T07:56:50.156Z,7.78
2023-01-24T07:57:51.982Z,7.82
2023-01-24T07:58:53.962Z,8.96
2023-01-24T07:59:55.735Z,7.85
2023-01-24T08:00:57.554Z,9.86
2023-01-24T08:01:59.319Z,9.95
2023-01-24T08:03:01.157Z,10.12
2023-01-24T08:04:02.989Z,8.99
2023-01-24T08:05:04.796Z,10.94
2023-01-24T08:06:07.079Z,9.74
2023-01-24T08:07:08.873Z,8.66
2023-01-24T08:08:10.654Z,8.90
2023-01-24T08:09:12.478Z,7.51
2023-01-24T08:10:14.374Z,7.29
2023-01-24T08:11:16.170Z,8.11
2023-01-24T08:12:17.947Z,8.73
2023-01-24T08:13:19.754Z,9.00
2023-01-24T08:14:21.575Z,9.19
2023-01-24T08:15:23.494Z,9.14
2023-01-24T08:16:25.595Z,8.43
2023-01-24T08:17:27.399Z,8.59
2023-01-24T08:18:29.191Z,8.63
2023-01-24T08:19:53.851Z,9.19
2023-01-24T08:20:34.612Z,9.06
2023-01-24T08:21:36.398Z,9.51
2023-01-24T08:22:48.784Z,9.05
2023-01-24T08:23:41.897Z,8.27
2023-01-24T08:24:43.762Z,9.02
2023-01-24T08:25:45.641Z,8.23
2023-01-24T08:26:47.961Z,8.75
2023-01-24T08:27:49.791Z,9.27
2023-01-24T08:28:51.572Z,8.91
2023-01-24T08:29:53.397Z,8.77
2023-01-24T08:30:55.308Z,9.43
2023-01-24T08:31:57.123Z,9.63
2023-01-24T08:32:58.911Z,9.16
2023-01-24T08:34:00.702Z,10.11
2023-01-24T08:35:02.547Z,8.84
2023-01-24T08:36:04.314Z,8.90
2023-01-24T08:37:06.123Z,9.39
2023-01-24T08:38:07.940Z,8.56
2023-01-24T08:39:13.256Z,9.36
2023-01-24T08:40:13.452Z,10.39
2023-01-24T08:41:15.251Z,8.78
2023-01-24T08:42:17.095Z,9.19
2023-01-24T08:43:18.887Z,10.18
2023-01-24T08:44:20.666Z,10.12
2023-01-24T08:45:22.912Z,9.38
2023-01-24T08:46:25.125Z,10.58
2023-01-24T08:47:28.461Z,9.05
2023-01-24T08:48:30.476Z,9.76
2023-01-24T08:49:32.253Z,9.71
2023-01-24T08:50:34.205Z,9.05
2023-01-24T08:51:36.035Z,9.39
2023-01-24T08:52:37.886Z,10.90
2023-01-24T08:53:39.634Z,10.70
2023-01-24T08:54:43.584Z,8.99
2023-01-24T08:55:45.098Z,9.31
2023-01-24T08:56:47.022Z,9.83
2023-01-24T08:57:48.810Z,11.10
2023-01-24T08:58:50.618Z,9.86
2023-01-24T08:59:52.431Z,10.21
2023-01-24T09:00:54.274Z,10.05
2023-01-24T09:01:56.195Z,9.25
2023-01-24T09:02:57.983Z,8.49
2023-01-24T09:03:59.777Z,7.91
2023-01-24T09:05:01.618Z,8.01
2023-01-24T09:06:03.398Z,8.89
2023-01-24T09:07:06.252Z,10.38
2023-01-24T09:08:08.076Z,10.77
2023-01-24T09:09:09.870Z,10.17
2023-01-24T09:10:11.872Z,9.76
2023-01-24T09:11:13.707Z,9.61
2023-01-24T09:12:15.656Z,10.84
2023-01-24T09:13:17.471Z,9.63
2023-01-24T09:14:19.281Z,8.73
2023-01-24T09:15:21.517Z,9.84
2023-01-24T09:16:23.583Z,10.72
2023-01-24T09:17:25.466Z,10.87
2023-01-24T09:18:27.275Z,11.00
2023-01-24T09:19:29.095Z,11.27
2023-01-24T09:20:30.978Z,11.61
2023-01-24T09:21:32.930Z,12.88
2023-01-24T09:22:34.723Z,9.83
2023-01-24T09:23:36.540Z,10.03
2023-01-24T09:24:38.320Z,11.37
2023-01-24T09:25:40.128Z,11.64
2023-01-24T09:26:41.992Z,11.17
2023-01-24T09:27:43.802Z,10.62
2023-01-24T09:28:45.631Z,10.36
2023-01-24T09:29:47.413Z,11.87
2023-01-24T09:30:49.238Z,11.52
2023-01-24T09:31:51.128Z,9.78
2023-01-24T09:32:53.251Z,10.56
2023-01-24T09:33:59.881Z,10.63
2023-01-24T09:34:58.641Z,10.16
2023-01-24T09:36:00.447Z,10.11
2023-01-24T09:37:02.290Z,9.01
2023-01-24T09:38:04.104Z,9.33
2023-01-24T09:39:06.726Z,9.65
2023-01-24T09:40:09.691Z,11.77
2023-01-24T09:41:11.489Z,13.51
2023-01-24T09:42:13.375Z,12.29
2023-01-24T09:43:15.149Z,11.46
2023-01-24T09:44:16.945Z,13.32
2023-01-24T09:45:18.744Z,12.45
2023-01-24T09:46:20.548Z,12.33
2023-01-24T09:47:22.398Z,10.88
2023-01-24T09:48:24.233Z,13.21
2023-01-24T09:49:26.027Z,11.97
2023-01-24T09:50:28.033Z,12.11
2023-01-24T09:51:29.824Z,12.96
2023-01-24T09:52:31.648Z,12.24
2023-01-24T09:53:33.438Z,14.92
2023-01-24T09:54:35.256Z,11.90
2023-01-24T09:55:37.087Z,9.44
2023-01-24T09:56:38.985Z,9.10
2023-01-24T09:57:40.836Z,9.91
2023-01-24T09:58:42.643Z,11.06
2023-01-24T09:59:44.495Z,10.30
2023-01-24T10:00:46.487Z,10.05
2023-01-24T10:01:48.322Z,12.85
2023-01-24T10:02:50.137Z,10.98
2023-01-24T10:03:51.971Z,12.01
2023-01-24T10:04:53.802Z,11.14
2023-01-24T10:05:55.744Z,9.79
2023-01-24T10:06:57.843Z,11.35
2023-01-24T10:07:59.676Z,10.27
2023-01-24T10:09:01.576Z,10.50
2023-01-24T10:10:03.327Z,11.61
2023-01-24T10:11:05.139Z,10.95
2023-01-24T10:12:07.011Z,10.88
2023-01-24T10:13:08.859Z,10.76
2023-01-24T10:14:10.683Z,10.67
2023-01-24T10:15:12.568Z,10.47
2023-01-24T10:16:14.420Z,12.57
2023-01-24T10:17:16.144Z,11.77
2023-01-24T10:18:17.976Z,11.69
2023-01-24T10:19:19.840Z,10.13
2023-01-24T10:20:21.967Z,10.75
2023-01-24T10:21:23.844Z,10.57
2023-01-24T10:22:25.660Z,10.54
2023-01-24T10:23:27.500Z,10.00
2023-01-24T10:24:29.300Z,10.76
2023-01-24T10:25:31.083Z,10.99
2023-01-24T10:28:14.193Z,12.08
2023-01-24T10:29:16.140Z,11.20
2023-01-24T10:30:18.148Z,10.57
2023-01-24T10:31:20.025Z,10.40
2023-01-24T10:32:37.051Z,9.63
2023-01-24T10:33:38.888Z,10.62
2023-01-24T10:34:40.766Z,10.44
2023-01-24T10:35:42.576Z,10.11
2023-01-24T10:36:44.792Z,10.43
2023-01-24T10:37:46.607Z,9.90
2023-01-24T10:38:48.429Z,10.49
2023-01-24T10:39:50.283Z,10.41
2023-01-24T10:40:52.130Z,10.79
2023-01-24T10:41:53.933Z,12.47
2023-01-24T10:42:55.782Z,13.52
2023-01-24T10:43:58.185Z,12.04
2023-01-24T10:45:00.084Z,11.95
2023-01-24T10:46:01.941Z,12.14
2023-01-24T10:47:03.777Z,11.37
2023-01-24T10:48:05.607Z,10.59
2023-01-24T10:49:07.499Z,10.61
2023-01-24T10:50:10.282Z,10.49
2023-01-24T10:51:12.133Z,11.33
2023-01-24T10:52:13.933Z,11.74
2023-01-24T10:53:26.263Z,12.21
2023-01-24T10:54:19.358Z,11.04
2023-01-24T10:55:21.689Z,9.75
2023-01-24T10:56:23.689Z,10.03
2023-01-24T10:57:25.474Z,10.34
2023-01-24T10:58:27.289Z,9.51
2023-01-24T10:59:29.167Z,10.06
2023-01-24T11:00:31.110Z,9.65
2023-01-24T11:01:32.967Z,10.85
2023-01-24T11:02:34.885Z,11.96
2023-01-24T11:03:36.809Z,10.70
2023-01-24T11:04:38.619Z,11.36
2023-01-24T11:05:40.453Z,12.88
2023-01-24T11:06:42.237Z,13.99
2023-01-24T11:07:44.040Z,13.49
2023-01-24T11:08:46.019Z,12.09
2023-01-24T11:09:47.910Z,11.45
2023-01-24T11:10:51.436Z,11.19
2023-01-24T11:11:53.288Z,11.96
2023-01-24T11:12:56.248Z,11.57
2023-01-24T11:13:58.145Z,10.59
2023-01-24T11:14:59.919Z,9.41
2023-01-24T11:16:01.805Z,9.19
2023-01-24T11:17:03.650Z,9.53
2023-01-24T11:18:05.395Z,9.76
2023-01-24T11:19:07.579Z,10.65
2023-01-24T11:20:09.801Z,10.22
2023-01-24T11:21:11.639Z,9.91
2023-01-24T11:22:13.453Z,9.65
2023-01-24T11:23:15.234Z,9.31
2023-01-24T11:24:17.078Z,9.76
2023-01-24T11:25:18.839Z,9.27
2023-01-24T11:26:20.769Z,9.25
2023-01-24T11:27:22.565Z,9.01
2023-01-24T11:28:24.369Z,8.29
2023-01-24T11:29:26.153Z,9.67
2023-01-24T11:30:28.072Z,9.37
2023-01-24T11:31:29.990Z,10.40
2023-01-24T11:32:31.781Z,10.83
2023-01-24T11:33:33.558Z,14.11
2023-01-24T11:34:35.344Z,15.44
2023-01-24T11:35:37.185Z,16.98
2023-01-24T11:36:39.131Z,13.90
2023-01-24T11:37:40.954Z,10.98
2023-01-24T11:38:42.728Z,12.18
2023-01-24T11:39:44.548Z,13.37
2023-01-24T11:40:46.431Z,12.72
2023-01-24T11:41:48.236Z,12.74
2023-01-24T11:42:50.021Z,11.33
2023-01-24T11:43:51.823Z,12.35
2023-01-24T11:44:53.638Z,13.83
2023-01-24T11:45:55.609Z,13.90
2023-01-24T11:46:57.474Z,11.85
2023-01-24T11:47:59.230Z,10.87
2023-01-24T11:49:01.046Z,11.69
2023-01-24T11:50:02.856Z,12.19
2023-01-24T11:51:13.102Z,10.55
2023-01-24T11:52:08.707Z,14.26
2023-01-24T11:53:10.498Z,14.47
2023-01-24T11:54:12.290Z,15.50
2023-01-24T11:55:14.065Z,10.49
2023-01-24T11:56:15.874Z,10.72
2023-01-24T11:57:17.703Z,10.69
2023-01-24T11:58:19.521Z,10.75
2023-01-24T11:59:21.299Z,9.94
2023-01-24T12:00:23.091Z,10.97
2023-01-24T12:01:24.992Z,8.98
2023-01-24T12:02:26.875Z,10.06
2023-01-24T12:03:28.668Z,12.21
2023-01-24T12:04:30.495Z,10.90
2023-01-24T12:05:32.338Z,11.41
2023-01-24T12:06:34.210Z,11.63
2023-01-24T12:07:36.102Z,11.92
2023-01-24T12:08:37.865Z,12.79
2023-01-24T12:09:39.672Z,12.51
2023-01-24T12:10:41.750Z,14.93
2023-01-24T12:11:43.553Z,17.21
2023-01-24T12:12:55.387Z,22.01
2023-01-24T12:13:48.962Z,19.27
2023-01-24T12:14:50.748Z,18.61
2023-01-24T12:15:52.601Z,17.06
2023-01-24T12:16:54.352Z,17.00
2023-01-24T12:17:56.196Z,11.89
2023-01-24T12:18:57.991Z,11.85
2023-01-24T12:19:59.802Z,13.78
2023-01-24T12:21:01.696Z,10.70
2023-01-24T12:22:03.556Z,10.57
2023-01-24T12:23:05.655Z,11.81
2023-01-24T12:24:09.947Z,11.06
2023-01-24T12:25:11.058Z,9.53
2023-01-24T12:26:13.259Z,9.96
2023-01-24T12:27:15.082Z,10.82
2023-01-24T12:28:16.901Z,9.79
2023-01-24T12:29:18.696Z,10.36
2023-01-24T12:30:20.833Z,13.60
2023-01-24T12:31:22.844Z,11.95
2023-01-24T12:32:24.784Z,11.64
2023-01-24T12:33:26.608Z,12.51
2023-01-24T12:34:28.392Z,13.40
2023-01-24T12:35:30.210Z,12.85
2023-01-24T12:36:32.253Z,13.09
2023-01-24T12:37:34.099Z,12.80
2023-01-24T12:38:36.032Z,14.04
2023-01-24T12:39:37.801Z,14.03
2023-01-24T12:40:39.604Z,15.21
2023-01-24T12:41:41.391Z,13.91
2023-01-24T12:42:43.200Z,12.23
2023-01-24T12:43:45.063Z,12.05
2023-01-24T12:44:46.840Z,12.99
2023-01-24T12:45:48.652Z,11.99
2023-01-24T12:46:50.688Z,9.70
2023-01-24T12:47:52.540Z,7.89
2023-01-24T12:48:54.369Z,7.38
2023-01-24T12:49:56.308Z,7.93
2023-01-24T12:50:58.216Z,7.57
2023-01-24T12:52:00.002Z,8.76
2023-01-24T12:53:01.800Z,8.54
2023-01-24T12:54:03.648Z,10.01
2023-01-24T12:55:05.434Z,10.24
2023-01-24T12:56:08.240Z,10.79
2023-01-24T12:57:10.051Z,11.64
2023-01-24T12:58:11.836Z,11.49
2023-01-24T12:59:13.727Z,11.42
2023-01-24T13:00:15.498Z,10.73
2023-01-24T13:01:17.287Z,11.55
2023-01-24T13:02:19.135Z,12.64
2023-01-24T13:03:22.733Z,11.59
2023-01-24T13:04:24.581Z,11.55
2023-01-24T13:05:26.358Z,12.49
2023-01-24T13:06:28.158Z,13.40
2023-01-24T13:07:30.166Z,13.36
2023-01-24T13:08:31.969Z,13.60
2023-01-24T13:09:33.794Z,14.13
2023-01-24T13:10:35.600Z,12.58
2023-01-24T13:11:37.435Z,11.06
2023-01-24T13:12:39.243Z,11.32
2023-01-24T13:13:41.031Z,9.95
2023-01-24T13:14:42.870Z,8.49
2023-01-24T13:15:44.671Z,9.06
2023-01-24T13:16:46.523Z,9.46
2023-01-24T13:17:48.306Z,9.31
2023-01-24T13:18:50.194Z,9.43
2023-01-24T13:19:52.085Z,10.45
2023-01-24T13:20:54.030Z,10.79
2023-01-24T13:21:55.897Z,11.19
2023-01-24T13:22:57.698Z,13.13
2023-01-24T13:23:59.620Z,12.16
2023-01-24T13:25:01.495Z,12.99
2023-01-24T13:26:03.381Z,12.67
2023-01-24T13:27:05.202Z,13.63
2023-01-24T13:28:06.999Z,14.46
2023-01-24T13:30:29.073Z,15.61
2023-01-24T13:31:31.042Z,15.11
2023-01-24T13:32:33.010Z,14.57
2023-01-24T13:33:34.811Z,13.97
2023-01-24T13:34:36.633Z,14.52
2023-01-24T13:35:38.491Z,14.51
2023-01-24T13:36:40.450Z,14.91
2023-01-24T13:37:42.329Z,16.39